Time;durP1;ratioP1;P1;durP2;ratioP2;P2;SDS_P1;SDS_P2;PMS_P1;PMS_P2;Temp;Humidity;BMP_temperature;BMP_pressure;BME280_temperature;BME280_humidity;BME280_pressure;Samples;Min_cycle;Max_cycle;Signal;HPM_P1;HPM_P2
2024/04/02 08:11:32;;;;;;;10.02;2.00;;;;;;;14.49;52.04;98209.31;5806436;24;20650;-63
2024/04/02 08:13:59;;;;;;;6.82;1.88;;;;;;;13.99;53.21;98212.81;5790899;24;20471;-63
2024/04/02 08:16:26;;;;;;;6.82;2.03;;;;;;;13.64;55.35;98211.31;5757567;24;20105;-64
2024/04/02 08:18:52;;;;;;;3.90;1.75;;;;;;;13.45;55.25;98230.69;5795296;24;20047;-63
2024/04/02 08:21:19;;;;;;;5.93;1.70;;;;;;;13.21;56.11;98223.75;5794446;24;20111;-63
2024/04/02 08:23:45;;;;;;;5.32;1.55;;;;;;;12.96;57.25;98229.66;5794634;24;20078;-62
2024/04/02 08:26:12;;;;;;;4.75;1.70;;;;;;;12.82;57.55;98229.44;5795051;24;20060;-61
2024/04/02 08:28:38;;;;;;;6.60;1.67;;;;;;;12.78;58.05;98225.88;5757784;24;20067;-61
2024/04/02 08:31:04;;;;;;;13.20;3.25;;;;;;;12.66;57.89;98218.69;5736068;24;20072;-61
2024/04/02 08:33:31;;;;;;;7.22;2.08;;;;;;;12.73;57.58;98223.47;5719688;24;20061;-63
2024/04/02 08:35:58;;;;;;;7.32;2.30;;;;;;;12.71;58.67;98223.06;5719414;24;20098;-63
2024/04/02 08:38:24;;;;;;;4.38;1.50;;;;;;;12.66;58.07;98234.31;5753797;24;20064;-62
2024/04/02 08:40:52;;;;;;;7.13;1.70;;;;;;;12.75;57.84;98226.63;5685652;24;20073;-63
2024/04/02 08:43:21;;;;;;;5.35;1.67;;;;;;;13.00;57.70;98227.75;5719164;24;20052;-64
2024/04/02 08:45:47;;;;;;;6.53;1.73;;;;;;;13.10;56.82;98223.56;5752000;24;20138;-62
2024/04/02 08:48:17;;;;;;;8.10;1.77;;;;;;;13.18;56.13;98222.53;5753824;24;20044;-63
2024/04/02 08:50:44;;;;;;;6.78;1.90;;;;;;;13.36;56.49;98228.22;5753903;24;20040;-63
2024/04/02 08:53:11;;;;;;;8.73;1.83;;;;;;;13.64;55.81;98233.22;5718108;24;20043;-64
2024/04/02 08:55:41;;;;;;;8.32;2.13;;;;;;;13.86;55.18;98231.50;5752268;24;20064;-63
2024/04/02 08:58:08;;;;;;;7.47;1.75;;;;;;;13.90;53.80;98224.09;5717743;24;20470;-63
2024/04/02 09:00:35;;;;;;;7.38;1.73;;;;;;;13.80;54.12;98230.28;5718242;24;20521;-63
2024/04/02 09:03:01;;;;;;;5.85;1.90;;;;;;;13.90;54.19;98241.31;5753949;24;20068;-64
2024/04/02 09:05:31;;;;;;;10.82;2.08;;;;;;;13.94;53.40;98242.16;5718386;24;20048;-63
2024/04/02 09:07:58;;;;;;;7.82;1.77;;;;;;;14.01;53.73;98238.69;5753367;24;20040;-64
2024/04/02 09:10:27;;;;;;;5.40;1.83;;;;;;;13.97;53.12;98240.63;5753532;24;20064;-64
2024/04/02 09:12:53;;;;;;;7.95;2.03;;;;;;;13.75;53.35;98244.28;5751205;24;20079;-63
2024/04/02 09:15:21;;;;;;;6.57;1.63;;;;;;;13.54;54.32;98251.13;5753700;24;20051;-62
2024/04/02 09:17:48;;;;;;;7.20;1.67;;;;;;;13.56;54.48;98264.44;5752641;24;20391;-63
2024/04/02 09:20:14;;;;;;;5.95;1.63;;;;;;;13.72;54.36;98270.50;5719427;24;20052;-63
2024/04/02 09:22:41;;;;;;;8.25;2.63;;;;;;;13.71;53.35;98265.38;5741520;24;20249;-63
2024/04/02 09:25:11;;;;;;;7.15;2.38;;;;;;;13.61;53.83;98258.66;5702916;25;20439;-62
2024/04/02 09:27:39;;;;;;;10.23;2.60;;;;;;;13.53;53.26;98252.28;5701443;25;20028;-63
2024/04/02 09:30:09;;;;;;;8.20;3.22;;;;;;;13.48;53.31;98252.63;5735721;25;20078;-62
2024/04/02 09:32:37;;;;;;;20.48;5.90;;;;;;;13.54;53.43;98261.28;5735159;25;20072;-63
2024/04/02 09:35:13;;;;;;;18.58;5.55;;;;;;;13.62;52.99;98269.22;5700660;25;20033;-62
2024/04/02 09:37:41;;;;;;;13.02;3.70;;;;;;;13.74;52.91;98270.91;5735228;25;20562;-62
2024/04/02 09:40:08;;;;;;;12.98;4.32;;;;;;;13.79;52.88;98259.63;5699477;25;20033;-62
2024/04/02 09:42:37;;;;;;;9.68;3.25;;;;;;;13.78;52.93;98262.75;5734933;25;20412;-62
2024/04/02 09:45:05;;;;;;;6.82;1.88;;;;;;;13.67;52.61;98268.09;5700654;25;20029;-62
2024/04/02 09:47:33;;;;;;;7.05;2.35;;;;;;;13.55;53.21;98262.88;5700496;25;20037;-61
2024/04/02 09:50:00;;;;;;;12.23;2.22;;;;;;;13.55;53.41;98262.88;5736437;25;20158;-62
2024/04/02 09:52:27;;;;;;;6.63;2.00;;;;;;;13.54;53.38;98264.81;5736896;25;20442;-62
2024/04/02 09:54:54;;;;;;;6.13;3.00;;;;;;;13.49;52.73;98275.31;5702503;25;20041;-62
2024/04/02 09:57:22;;;;;;;16.40;8.43;;;;;;;13.49;53.52;98270.63;5700347;25;20104;-63
2024/04/02 09:59:48;;;;;;;9.25;2.67;;;;;;;13.61;53.22;98272.34;5701470;25;20136;-65
2024/04/02 10:02:21;;;;;;;8.98;3.13;;;;;;;13.69;53.96;98262.25;5703674;25;20085;-63
2024/04/02 10:04:50;;;;;;;6.80;2.03;;;;;;;13.97;53.88;98265.28;5741327;24;20044;-62
2024/04/02 10:07:28;;;;;;;3.25;1.50;;;;;;;14.14;52.71;98283.88;5743704;24;20033;-62
2024/04/02 10:10:00;;;;;;;8.30;2.45;;;;;;;14.49;51.61;98275.16;5744123;24;20125;-62
2024/04/02 10:12:31;;;;;;;5.70;2.30;;;;;;;14.59;50.91;98264.66;5678716;25;20051;-62
2024/04/02 10:15:04;;;;;;;6.72;1.63;;;;;;;14.83;50.50;98264.03;5744262;25;20158;-62
2024/04/02 10:17:34;;;;;;;4.65;1.70;;;;;;;14.94;50.52;98264.91;5707642;25;20048;-62
2024/04/02 10:20:00;;;;;;;6.47;2.03;;;;;;;15.09;49.65;98266.56;5746132;24;20108;-60
2024/04/02 10:22:36;;;;;;;9.93;2.83;;;;;;;15.04;49.33;98264.16;5707418;25;20057;-62
2024/04/02 10:25:10;;;;;;;6.13;2.38;;;;;;;15.26;49.07;98278.81;5737370;25;20032;-62
2024/04/02 10:27:36;;;;;;;;;;;;;;;15.31;48.73;98267.44;5737637;25;20033;-61
2024/04/02 10:30:15;;;;;;;12.90;3.35;;;;;;;15.26;48.90;98267.03;5703225;24;20014;-61
2024/04/02 10:32:43;;;;;;;6.97;2.17;;;;;;;15.33;49.41;98264.31;5702650;25;20097;-63
2024/04/02 10:35:24;;;;;;;7.90;2.50;;;;;;;15.51;48.33;98264.38;5736111;25;20443;-63
2024/04/02 10:37:56;;;;;;;4.07;1.55;;;;;;;15.28;48.31;98267.44;5708095;25;20053;-64
2024/04/02 10:40:27;;;;;;;8.05;2.03;;;;;;;15.24;48.88;98267.41;5709311;25;20052;-64
2024/04/02 10:42:54;;;;;;;5.70;2.15;;;;;;;15.24;48.58;98267.41;5740249;24;20061;-65
2024/04/02 10:45:20;;;;;;;4.22;1.83;;;;;;;15.12;48.12;98257.56;5703742;24;20087;-63
2024/04/02 10:47:48;;;;;;;3.33;1.30;;;;;;;14.87;48.76;98266.78;5734820;25;20021;-62
2024/04/02 10:50:16;;;;;;;6.85;2.90;;;;;;;14.57;49.67;98265.03;5700200;25;20035;-63
2024/04/02 10:52:43;;;;;;;7.78;3.45;;;;;;;14.48;50.17;98272.81;5700096;25;20040;-62
2024/04/02 10:55:10;;;;;;;10.35;3.53;;;;;;;14.57;50.98;98276.03;5700421;25;20150;-62
2024/04/02 10:57:38;;;;;;;6.65;3.50;;;;;;;14.68;51.69;98267.84;5734386;24;20476;-63
2024/04/02 11:00:09;;;;;;;7.82;2.92;;;;;;;14.81;50.91;98274.63;5734436;24;20057;-62
2024/04/02 11:02:37;;;;;;;4.43;2.72;;;;;;;14.98;50.91;98281.41;5699359;25;20483;-62
2024/04/02 11:05:06;;;;;;;9.95;2.13;;;;;;;14.99;50.42;98274.72;5699459;25;20784;-62
2024/04/02 11:07:33;;;;;;;11.20;3.45;;;;;;;15.10;50.10;98275.59;5698171;25;20498;-63
2024/04/02 11:10:00;;;;;;;5.03;1.70;;;;;;;15.18;49.95;98279.16;5698162;25;20060;-62
2024/04/02 11:12:27;;;;;;;6.70;1.73;;;;;;;15.15;49.55;98283.44;5698865;25;20033;-62
2024/04/02 11:14:54;;;;;;;6.32;2.80;;;;;;;15.17;49.46;98272.88;5699674;25;20124;-62
2024/04/02 11:17:22;;;;;;;9.88;2.20;;;;;;;15.20;49.34;98280.34;5733578;25;20150;-61
2024/04/02 11:19:49;;;;;;;8.00;2.45;;;;;;;15.16;49.75;98279.53;5734323;25;20547;-61
2024/04/02 11:25:14;;;;;;;4.32;1.40;;;;;;;15.46;47.78;98290.28;5733917;25;20466;-62
2024/04/02 11:28:12;;;;;;;10.40;2.72;;;;;;;15.36;48.42;98286.31;5733038;25;20157;-62
2024/04/02 11:30:40;;;;;;;6.32;2.75;;;;;;;15.50;47.85;98296.59;5733231;25;20064;-63
2024/04/02 11:33:08;;;;;;;7.10;3.85;;;;;;;15.48;47.26;98304.44;5698586;25;20185;-63
2024/04/02 11:35:34;;;;;;;12.13;5.32;;;;;;;15.41;49.68;98294.16;5698393;25;20517;-62
2024/04/02 11:38:01;;;;;;;7.40;2.92;;;;;;;15.44;50.31;98293.41;5732292;24;20058;-61
2024/04/02 11:40:27;;;;;;;10.65;4.10;;;;;;;15.49;51.33;98297.75;5697765;25;20056;-63
2024/04/02 11:42:54;;;;;;;7.70;2.65;;;;;;;15.50;50.87;98310.31;5733886;24;20041;-61
2024/04/02 11:45:22;;;;;;;4.68;2.90;;;;;;;15.41;50.63;98307.13;5734272;24;20526;-64
2024/04/02 11:47:49;;;;;;;10.55;4.43;;;;;;;15.15;50.37;98314.44;5732759;24;20037;-63
2024/04/02 11:50:18;;;;;;;8.75;4.20;;;;;;;15.02;50.74;98315.16;5733700;25;20052;-64
2024/04/02 11:52:45;;;;;;;5.18;1.50;;;;;;;14.95;51.86;98321.38;5665211;25;20476;-63
2024/04/02 11:55:12;;;;;;;9.95;3.35;;;;;;;14.89;51.59;98322.94;5665812;25;20121;-62
2024/04/02 12:00:23;;;;;;;6.28;2.92;;;;;;;14.97;51.04;98335.53;5733381;24;20116;-62
2024/04/02 12:02:51;;;;;;;9.82;3.05;;;;;;;14.68;51.50;98330.97;5698728;25;20045;-61
2024/04/02 12:05:18;;;;;;;5.30;1.90;;;;;;;14.52;52.91;98334.78;5733284;25;20389;-62
2024/04/02 12:07:44;;;;;;;12.98;3.50;;;;;;;14.45;54.16;98336.66;5731909;24;20044;-61
2024/04/02 12:10:12;;;;;;;8.43;2.05;;;;;;;14.39;54.40;98338.16;5697325;25;20053;-62
2024/04/02 12:12:38;;;;;;;10.93;2.80;;;;;;;14.34;54.69;98338.50;5697510;25;20029;-62
2024/04/02 12:15:07;;;;;;;6.90;2.80;;;;;;;14.53;55.24;98338.31;5697571;24;20037;-62
2024/04/02 12:17:34;;;;;;;10.68;3.85;;;;;;;14.83;55.62;98341.69;5697069;25;20033;-61
2024/04/02 12:20:01;;;;;;;8.25;2.85;;;;;;;14.97;54.97;98340.22;5732562;25;20033;-61
2024/04/02 12:22:27;;;;;;;11.27;3.78;;;;;;;15.06;55.54;98343.41;5697545;25;20037;-62
2024/04/02 12:24:54;;;;;;;9.75;3.20;;;;;;;14.99;55.20;98344.16;5697516;25;20460;-62
2024/04/02 12:27:22;;;;;;;11.55;5.30;;;;;;;14.84;55.39;98342.47;5696880;24;20120;-62
2024/04/02 12:29:56;;;;;;;9.35;3.92;;;;;;;14.54;54.84;98339.91;5734772;24;20053;-62
2024/04/02 12:32:23;;;;;;;6.00;2.70;;;;;;;14.08;55.30;98337.44;5718279;25;20125;-62
2024/04/02 12:34:51;;;;;;;6.80;3.25;;;;;;;13.80;55.54;98339.88;5732610;24;20029;-62
2024/04/02 12:37:18;;;;;;;10.68;3.50;;;;;;;13.60;55.79;98351.00;5696341;25;20053;-61
2024/04/02 12:39:46;;;;;;;13.48;3.72;;;;;;;13.61;55.21;98354.53;5732134;25;20074;-61
2024/04/02 12:42:21;;;;;;;7.78;3.05;;;;;;;13.59;56.07;98349.44;5732147;24;20703;-61
2024/04/02 12:44:48;;;;;;;9.88;2.90;;;;;;;13.59;57.41;98348.66;5697496;25;20056;-61
2024/04/02 12:47:15;;;;;;;7.47;3.05;;;;;;;13.81;57.12;98346.94;5733823;25;20069;-61
2024/04/02 12:49:42;;;;;;;9.02;4.20;;;;;;;13.96;57.04;98340.47;5733637;24;20037;-61
2024/04/02 12:52:08;;;;;;;4.35;2.30;;;;;;;14.09;56.51;98336.28;5698876;25;20044;-62
2024/04/02 12:54:36;;;;;;;8.68;2.53;;;;;;;14.12;55.33;98332.00;5697231;25;20551;-62
2024/04/02 12:57:03;;;;;;;11.70;4.97;;;;;;;14.31;55.17;98317.28;5698632;25;20043;-62
2024/04/02 12:59:29;;;;;;;7.85;2.50;;;;;;;14.59;55.39;98322.28;5736546;24;20181;-62
2024/04/02 13:01:56;;;;;;;13.45;4.35;;;;;;;14.86;54.78;98323.66;5702651;25;20510;-63
2024/04/02 13:04:23;;;;;;;13.80;3.72;;;;;;;15.10;54.22;98314.03;5736428;24;20037;-62
2024/04/02 13:06:50;;;;;;;12.82;4.72;;;;;;;15.25;51.39;98312.16;5700739;25;20037;-62
2024/04/02 13:09:19;;;;;;;11.82;3.60;;;;;;;15.25;51.40;98299.22;5700774;25;20040;-64
2024/04/02 13:11:45;;;;;;;12.02;4.22;;;;;;;15.34;50.21;98298.84;5736723;24;20037;-63
2024/04/02 13:14:15;;;;;;;11.15;3.53;;;;;;;15.37;48.91;98309.06;5669283;25;20112;-63
2024/04/02 13:16:41;;;;;;;16.00;4.93;;;;;;;15.33;48.26;98309.06;5736063;25;20065;-62
2024/04/02 13:19:09;;;;;;;19.55;4.75;;;;;;;15.44;48.44;98303.63;5735908;24;20563;-62
2024/04/02 13:21:37;;;;;;;6.90;2.38;;;;;;;15.34;48.11;98298.84;5736196;24;20142;-62
2024/04/02 13:24:06;;;;;;;5.63;2.28;;;;;;;15.24;48.46;98291.34;5700480;25;20033;-63
2024/04/02 13:26:33;;;;;;;6.25;2.33;;;;;;;15.47;48.52;98302.84;5667571;25;20044;-63
2024/04/02 13:29:04;;;;;;;5.35;1.42;;;;;;;15.83;47.59;98311.25;5735875;25;20061;-62
2024/04/02 13:31:33;;;;;;;7.63;1.40;;;;;;;15.80;48.40;98298.28;5735521;25;20043;-63
2024/04/02 13:34:01;;;;;;;4.65;1.65;;;;;;;16.08;48.51;98298.34;5735541;25;20041;-62
2024/04/02 13:36:28;;;;;;;5.85;1.70;;;;;;;16.25;48.41;98294.06;5700728;25;20149;-62
2024/04/02 13:38:56;;;;;;;8.48;2.13;;;;;;;16.37;47.61;98303.91;5667326;25;20045;-62
2024/04/02 13:41:26;;;;;;;2.90;1.08;;;;;;;16.41;47.01;98299.19;5735825;25;20056;-62
2024/04/02 13:43:53;;;;;;;6.18;2.30;;;;;;;16.50;46.38;98296.81;5700445;25;20033;-63
2024/04/02 13:46:21;;;;;;;5.00;1.70;;;;;;;16.28;45.86;98302.31;5700595;25;20051;-62
2024/04/02 13:48:49;;;;;;;5.95;1.20;;;;;;;15.97;46.19;98316.78;5700288;25;20041;-62
2024/04/02 13:51:17;;;;;;;5.85;1.55;;;;;;;15.79;48.03;98324.19;5699693;25;20048;-60
2024/04/02 13:53:45;;;;;;;3.38;1.88;;;;;;;15.54;48.28;98324.84;5700197;25;20146;-61
2024/04/02 13:56:13;;;;;;;4.35;1.67;;;;;;;15.35;49.22;98311.41;5699991;25;20080;-60
2024/04/02 13:58:40;;;;;;;11.35;3.58;;;;;;;15.18;50.93;98315.63;5735034;25;20044;-61
2024/04/02 14:01:08;;;;;;;9.32;2.72;;;;;;;15.19;51.45;98308.19;5735124;25;20173;-61
2024/04/02 14:03:36;;;;;;;10.43;3.08;;;;;;;14.97;52.08;98308.06;5700416;25;20036;-64
2024/04/02 14:06:05;;;;;;;15.23;4.40;;;;;;;14.80;53.42;98298.53;5700149;25;20045;-63
2024/04/02 14:08:33;;;;;;;13.82;5.30;;;;;;;14.90;53.49;98302.53;5734630;25;20730;-62
2024/04/02 14:11:01;;;;;;;8.55;2.45;;;;;;;14.93;52.46;98295.50;5734414;24;20044;-63
2024/04/02 14:13:30;;;;;;;6.40;2.08;;;;;;;15.19;51.79;98295.25;5735731;25;20029;-63
2024/04/02 14:15:57;;;;;;;19.05;5.97;;;;;;;15.46;49.72;98290.28;5699520;25;20045;-63
2024/04/02 14:18:28;;;;;;;9.10;2.53;;;;;;;15.56;48.19;98299.72;5733951;25;20037;-64
2024/04/02 14:21:03;;;;;;;15.68;4.53;;;;;;;15.75;47.65;98289.22;5732684;25;20496;-61
2024/04/02 14:23:30;;;;;;;5.68;1.70;;;;;;;15.84;46.02;98293.59;5734549;25;20145;-61
2024/04/02 14:25:58;;;;;;;7.50;1.70;;;;;;;15.79;45.52;98282.94;5734955;25;20044;-62
2024/04/02 14:28:26;;;;;;;4.43;1.77;;;;;;;15.89;45.06;98291.25;5733576;25;20067;-62
2024/04/02 14:30:55;;;;;;;7.43;2.03;;;;;;;16.07;44.70;98299.53;5734555;25;20071;-61
2024/04/02 14:33:22;;;;;;;6.32;2.05;;;;;;;16.06;44.82;98284.22;5699247;25;20465;-61
2024/04/02 14:35:49;;;;;;;6.55;2.35;;;;;;;15.88;45.08;98297.13;5698928;25;20041;-61
2024/04/02 14:38:16;;;;;;;11.85;3.80;;;;;;;15.69;46.26;98293.53;5697898;25;20116;-61
2024/04/02 14:40:44;;;;;;;4.88;1.60;;;;;;;15.75;46.40;98286.47;5699411;25;20408;-61
2024/04/02 14:43:11;;;;;;;3.55;1.38;;;;;;;15.85;45.98;98289.66;5734825;24;20029;-63
2024/04/02 14:45:38;;;;;;;6.13;1.67;;;;;;;16.17;45.83;98286.97;5699577;25;20120;-61
2024/04/02 14:48:05;;;;;;;5.72;2.30;;;;;;;16.32;45.66;98278.34;5733123;24;20068;-62
2024/04/02 14:50:33;;;;;;;9.23;2.78;;;;;;;16.61;44.64;98276.38;5698743;25;20061;-61
2024/04/02 14:53:00;;;;;;;9.23;2.42;;;;;;;16.88;43.64;98265.75;5735250;25;20037;-61
2024/04/02 14:55:27;;;;;;;6.70;2.20;;;;;;;17.11;43.36;98275.56;5735078;25;20028;-61
2024/04/02 14:57:53;;;;;;;7.88;2.30;;;;;;;17.32;43.06;98272.75;5697648;25;20112;-61
2024/04/02 15:00:20;;;;;;;11.38;2.92;;;;;;;17.35;42.74;98265.63;5734616;24;20041;-61
2024/04/02 15:02:46;;;;;;;11.57;3.17;;;;;;;17.30;42.21;98261.31;5731639;24;20419;-62
2024/04/02 15:05:13;;;;;;;14.60;4.88;;;;;;;16.76;43.27;98248.88;5698994;25;20142;-61
2024/04/02 15:07:39;;;;;;;8.00;2.30;;;;;;;16.52;44.10;98253.97;5697599;25;20071;-61
2024/04/02 15:10:06;;;;;;;4.00;1.58;;;;;;;16.27;44.79;98250.44;5698527;25;20056;-61
2024/04/02 15:12:33;;;;;;;6.13;1.58;;;;;;;16.33;45.31;98255.13;5698280;25;20076;-62
2024/04/02 15:14:59;;;;;;;6.53;1.95;;;;;;;16.64;44.59;98233.50;5734273;25;20061;-61
2024/04/02 15:17:26;;;;;;;5.90;2.70;;;;;;;17.01;43.56;98249.59;5733272;25;20120;-61
2024/04/02 15:19:52;;;;;;;6.43;2.50;;;;;;;17.19;42.73;98261.34;5732780;25;20068;-61
2024/04/02 15:22:19;;;;;;;3.47;1.38;;;;;;;16.71;41.83;98247.28;5734267;25;20056;-62
2024/04/02 15:24:45;;;;;;;4.88;1.60;;;;;;;16.42;43.17;98252.00;5698287;25;20036;-62
2024/04/02 15:27:12;;;;;;;4.78;1.50;;;;;;;16.67;42.64;98235.50;5732959;25;20454;-62
2024/04/02 15:29:40;;;;;;;4.75;1.50;;;;;;;16.84;42.26;98253.16;5733972;25;20072;-62
2024/04/02 15:32:07;;;;;;;4.57;1.70;;;;;;;17.03;41.81;98249.19;5698246;25;20037;-63
2024/04/02 15:34:33;;;;;;;7.13;1.83;;;;;;;16.79;42.18;98248.06;5733426;25;20049;-63
2024/04/02 15:37:00;;;;;;;4.63;1.77;;;;;;;16.61;42.50;98254.34;5733470;25;20033;-62
2024/04/02 15:39:26;;;;;;;6.88;1.98;;;;;;;16.50;42.31;98239.81;5733477;25;20514;-62
2024/04/02 15:41:53;;;;;;;7.57;1.75;;;;;;;16.28;42.83;98250.03;5697949;25;20117;-62
2024/04/02 15:44:20;;;;;;;4.40;1.60;;;;;;;16.17;42.91;98253.94;5733628;25;20065;-62
2024/04/02 15:46:47;;;;;;;5.95;2.20;;;;;;;16.18;42.10;98253.59;5733056;25;20104;-61
2024/04/02 15:49:14;;;;;;;6.88;2.30;;;;;;;16.02;42.14;98264.97;5733831;25;20060;-61
2024/04/02 15:51:41;;;;;;;5.10;1.60;;;;;;;15.88;41.84;98258.63;5733553;25;20880;-60
2024/04/02 15:54:08;;;;;;;8.75;1.52;;;;;;;15.77;43.12;98255.06;5698343;25;20033;-61
2024/04/02 15:56:34;;;;;;;7.40;1.77;;;;;;;15.95;43.09;98242.13;5733607;25;20033;-61
2024/04/02 15:59:01;;;;;;;6.65;1.90;;;;;;;16.50;41.97;98250.03;5733250;25;20041;-62
2024/04/02 16:01:34;;;;;;;4.70;1.75;;;;;;;16.55;41.69;98239.44;5732981;24;20056;-60
2024/04/02 16:04:01;;;;;;;4.40;1.50;;;;;;;16.78;41.81;98249.25;5733217;24;20072;-61
2024/04/02 16:06:28;;;;;;;4.60;1.88;;;;;;;16.98;41.16;98247.63;5733138;25;20045;-61
2024/04/02 16:08:55;;;;;;;4.63;1.13;;;;;;;17.16;40.63;98250.34;5697329;25;20052;-62
2024/04/02 16:11:23;;;;;;;5.65;2.15;;;;;;;16.98;40.16;98257.88;5732551;25;20868;-61
2024/04/02 16:13:50;;;;;;;3.60;1.30;;;;;;;16.61;40.43;98253.56;5665142;25;20075;-61
2024/04/02 16:16:16;;;;;;;7.15;1.80;;;;;;;16.51;40.71;98266.16;5697632;25;20518;-61
2024/04/02 16:18:47;;;;;;;7.00;1.75;;;;;;;16.27;41.56;98256.72;5731444;25;20134;-61
2024/04/02 16:21:19;;;;;;;6.13;2.28;;;;;;;16.15;41.60;98259.06;5696945;25;20049;-61
2024/04/02 16:23:46;;;;;;;5.80;1.75;;;;;;;16.04;41.41;98264.56;5664823;25;20074;-63
2024/04/02 16:26:12;;;;;;;5.95;1.67;;;;;;;15.97;41.25;98261.78;5732918;25;20037;-62
2024/04/02 16:28:40;;;;;;;6.30;1.85;;;;;;;16.68;40.74;98253.59;5731259;25;20142;-62
2024/04/02 16:31:08;;;;;;;5.22;1.67;;;;;;;17.30;40.21;98255.03;5696718;24;20514;-61
2024/04/02 16:33:35;;;;;;;6.13;2.20;;;;;;;17.45;39.08;98248.25;5737026;25;20062;-61
2024/04/02 16:36:13;;;;;;;7.32;2.95;;;;;;;17.38;38.96;98253.81;5700938;25;20120;-61
2024/04/02 16:38:40;;;;;;;7.30;2.10;;;;;;;17.10;39.03;98246.41;5699891;25;20037;-62
2024/04/02 16:41:11;;;;;;;5.47;2.08;;;;;;;17.32;39.41;98247.94;5700631;25;20061;-60
2024/04/02 16:43:49;;;;;;;4.35;1.52;;;;;;;17.38;38.17;98251.06;5700312;25;20529;-61
2024/04/02 16:46:15;;;;;;;5.60;1.92;;;;;;;17.46;37.99;98244.31;5737134;25;20380;-61
2024/04/02 16:48:42;;;;;;;6.57;1.60;;;;;;;17.68;37.85;98245.03;5667689;25;20044;-61
2024/04/02 16:51:09;;;;;;;9.50;2.15;;;;;;;17.70;37.73;98239.91;5736341;25;20108;-61
2024/04/02 16:53:35;;;;;;;5.97;2.22;;;;;;;17.64;37.77;98241.47;5700978;25;20149;-61
2024/04/02 16:56:12;;;;;;;6.68;2.42;;;;;;;17.19;37.83;98241.28;5735918;25;20033;-62
2024/04/02 16:58:40;;;;;;;13.75;4.55;;;;;;;16.84;37.91;98240.19;5734791;25;20025;-61
2024/04/02 17:01:08;;;;;;;22.65;7.03;;;;;;;16.62;38.64;98249.63;5700545;25;20041;-61
2024/04/02 17:04:34;;;;;;;33.58;8.35;;;;;;;-145.94;100.00;66302.34;5736250;25;20488;-61
2024/04/02 17:07:59;;;;;;;9.57;2.78;;;;;;;-145.94;100.00;66302.34;5735330;25;20040;-61
2024/04/02 17:11:24;;;;;;;11.30;3.38;;;;;;;-145.94;100.00;66302.34;5700591;25;20475;-61
2024/04/02 17:14:49;;;;;;;10.00;3.28;;;;;;;-145.94;100.00;66302.34;5736038;25;20049;-61
2024/04/02 17:18:14;;;;;;;3.15;1.48;;;;;;;-145.94;100.00;66302.34;5699611;25;20061;-61
2024/04/02 17:21:39;;;;;;;;;;;;;;;-145.94;100.00;66302.34;5701384;25;20054;-61
2024/04/02 17:25:04;;;;;;;7.47;2.35;;;;;;;-145.94;100.00;66302.34;5735044;25;19945;-61
2024/04/02 17:28:30;;;;;;;7.40;2.28;;;;;;;-145.94;100.00;66302.34;5699986;25;20040;-61
2024/04/02 17:31:55;;;;;;;3.75;1.10;;;;;;;-145.94;100.00;66302.34;5735873;25;20041;-61
2024/04/02 17:35:20;;;;;;;3.63;1.23;;;;;;;-145.94;100.00;66302.34;5735738;25;20054;-61
2024/04/02 17:38:45;;;;;;;;;;;;;;;-145.94;100.00;66302.34;5699949;25;20522;-61
2024/04/02 17:42:12;;;;;;;7.03;1.30;;;;;;;-145.94;100.00;66302.34;5734644;25;19935;-61
2024/04/02 17:45:37;;;;;;;7.05;1.85;;;;;;;-145.94;100.00;66302.34;5699719;25;20427;-62
2024/04/02 17:49:02;;;;;;;3.40;1.15;;;;;;;-145.94;100.00;66302.34;5668307;25;20029;-64
2024/04/02 17:52:27;;;;;;;6.10;1.70;;;;;;;-145.94;100.00;66302.34;5737150;25;20157;-63
2024/04/02 17:55:58;;;;;;;2.58;1.42;;;;;;;-145.94;100.00;66302.34;5701852;25;20060;-64
2024/04/02 17:59:23;;;;;;;4.63;2.05;;;;;;;-145.94;100.00;66302.34;5700610;25;20531;-63
2024/04/02 18:02:48;;;;;;;;;;;;;;;-145.94;100.00;66302.34;5702033;25;20217;-62
2024/04/02 18:06:13;;;;;;;5.65;1.73;;;;;;;-145.94;100.00;66302.34;5735194;25;20040;-62
2024/04/02 18:09:41;;;;;;;5.18;2.20;;;;;;;-145.94;100.00;66302.34;5735669;25;20036;-62
2024/04/02 18:13:06;;;;;;;9.07;2.00;;;;;;;-145.94;100.00;66302.34;5701040;25;20181;-63
2024/04/02 18:16:31;;;;;;;6.63;1.75;;;;;;;-145.94;100.00;66302.34;5700512;25;20388;-63
2024/04/02 18:19:56;;;;;;;15.65;6.97;;;;;;;-145.94;100.00;66302.34;5699968;25;20148;-63
2024/04/02 18:23:21;;;;;;;6.00;1.65;;;;;;;-145.94;100.00;66302.34;5736469;25;20525;-63
2024/04/02 18:26:50;;;;;;;;;;;;;;;-145.94;100.00;66302.34;5737114;24;20048;-63
2024/04/02 18:30:15;;;;;;;7.65;1.67;;;;;;;-145.94;100.00;66302.34;5736846;24;19931;-64
2024/04/02 18:33:43;;;;;;;8.95;2.03;;;;;;;-145.94;100.00;66302.34;5698217;25;20045;-64
2024/04/02 18:37:09;;;;;;;10.18;2.67;;;;;;;-145.94;100.00;66302.34;5717038;25;20051;-65
2024/04/02 18:39:48;;;;;;;5.85;1.98;;;;;;;-145.94;100.00;66302.34;5747501;25;20198;-66
2024/04/02 18:43:14;;;;;;;5.38;1.55;;;;;;;-145.94;100.00;66302.34;5676942;25;20139;-64
2024/04/02 18:46:40;;;;;;;2.97;1.60;;;;;;;-145.94;100.00;66302.34;5747262;25;20111;-64
2024/04/02 18:50:05;;;;;;;2.38;1.50;;;;;;;-145.94;100.00;66302.34;5706129;24;20045;-63
2024/04/02 18:53:30;;;;;;;4.72;1.77;;;;;;;-145.94;100.00;66302.34;5742750;25;20052;-64
2024/04/02 18:56:59;;;;;;;5.10;1.52;;;;;;;-145.94;100.00;66302.34;5706864;25;20040;-63
2024/04/02 19:00:24;;;;;;;6.13;2.33;;;;;;;-145.94;100.00;66302.34;5757349;25;20056;-63
2024/04/02 19:03:50;;;;;;;5.95;2.20;;;;;;;-145.94;100.00;66302.34;5751954;25;20041;-63
2024/04/02 19:07:18;;;;;;;6.28;1.90;;;;;;;-145.94;100.00;66302.34;5754915;24;20100;-63
2024/04/02 19:10:43;;;;;;;7.75;3.92;;;;;;;-145.94;100.00;66302.34;5755866;24;20135;-63
2024/04/02 19:14:08;;;;;;;9.90;4.78;;;;;;;-145.94;100.00;66302.34;5753616;25;20515;-62
2024/04/02 19:17:33;;;;;;;6.40;2.90;;;;;;;-145.94;100.00;66302.34;5752957;24;20044;-61
2024/04/02 19:21:00;;;;;;;9.25;2.42;;;;;;;-145.94;100.00;66302.34;5756675;24;20045;-62
2024/04/02 19:24:26;;;;;;;5.60;1.95;;;;;;;-145.94;100.00;66302.34;5741310;24;20151;-64
2024/04/02 19:27:51;;;;;;;4.45;2.22;;;;;;;-145.94;100.00;66302.34;5737102;24;20052;-64
2024/04/02 19:31:16;;;;;;;8.20;2.80;;;;;;;-145.94;100.00;66302.34;5691514;25;20535;-63
2024/04/02 19:34:41;;;;;;;;;;;;;;;-145.94;100.00;66302.34;5724303;25;20079;-63
2024/04/02 19:38:06;;;;;;;13.32;5.38;;;;;;;-145.94;100.00;66302.34;5730635;25;20057;-63
2024/04/02 19:41:32;;;;;;;16.80;6.97;;;;;;;-145.94;100.00;66302.34;5731680;25;20072;-63
2024/04/02 19:44:57;;;;;;;14.45;6.63;;;;;;;-145.94;100.00;66302.34;5731423;24;20080;-62
2024/04/02 19:48:22;;;;;;;12.10;4.07;;;;;;;-145.94;100.00;66302.34;5731442;25;20025;-61
2024/04/02 19:51:47;;;;;;;;;;;;;;;-145.94;100.00;66302.34;5734461;25;20357;-62
2024/04/02 19:55:12;;;;;;;5.72;1.98;;;;;;;-145.94;100.00;66302.34;5730078;25;20044;-62
2024/04/02 19:58:38;;;;;;;7.45;2.03;;;;;;;-145.94;100.00;66302.34;5731484;25;20508;-62
2024/04/02 20:02:06;;;;;;;3.70;1.60;;;;;;;-145.94;100.00;66302.34;5733915;24;20515;-62
2024/04/02 20:05:33;;;;;;;8.23;4.28;;;;;;;-145.94;100.00;66302.34;5699289;25;20044;-63
2024/04/02 20:09:01;;;;;;;5.57;2.53;;;;;;;-145.94;100.00;66302.34;5732322;25;20071;-62
2024/04/02 20:12:26;;;;;;;8.40;3.22;;;;;;;-145.94;100.00;66302.34;5698853;25;20517;-63
2024/04/02 20:15:52;;;;;;;4.95;1.60;;;;;;;-145.94;100.00;66302.34;5734366;25;20067;-62
2024/04/02 20:19:17;;;;;;;4.63;1.50;;;;;;;-145.94;100.00;66302.34;5696846;25;20033;-62
2024/04/02 20:22:42;;;;;;;;;;;;;;;-145.94;100.00;66302.34;5698959;25;20044;-62
2024/04/02 20:26:08;;;;;;;6.45;2.00;;;;;;;-145.94;100.00;66302.34;5696939;25;20055;-62
2024/04/02 20:29:33;;;;;;;5.47;2.83;;;;;;;-145.94;100.00;66302.34;5733647;25;20021;-62
2024/04/02 20:32:58;;;;;;;12.23;4.65;;;;;;;-145.94;100.00;66302.34;5710348;25;20154;-63
2024/04/02 20:36:24;;;;;;;5.80;2.35;;;;;;;-145.94;100.00;66302.34;5698378;25;20064;-63
2024/04/02 20:39:51;;;;;;;15.13;6.00;;;;;;;-145.94;100.00;66302.34;5665926;25;20056;-62
2024/04/02 20:43:17;;;;;;;9.52;3.97;;;;;;;-145.94;100.00;66302.34;5697907;25;20423;-64
2024/04/02 20:46:42;;;;;;;6.20;2.53;;;;;;;-145.94;100.00;66302.34;5665987;25;20415;-63
2024/04/02 20:50:08;;;;;;;4.03;1.90;;;;;;;-145.94;100.00;66302.34;5733948;25;20041;-63